Time;durP1;ratioP1;P1;durP2;ratioP2;P2;SDS_P1;SDS_P2;PMS_P1;PMS_P2;Temp;Humidity;BMP_temperature;BMP_pressure;BME280_temperature;BME280_humidity;BME280_pressure;Samples;Min_cycle;Max_cycle;Signal;HPM_P1;HPM_P2
2023/04/24 00:01:00;;;;;;;8.98;5.53;;;;;;;;;;5120766;27;20019;-70
2023/04/24 00:03:46;;;;;;;9.32;5.97;;;;;;;;;;5135787;27;20341;-70
2023/04/24 00:06:36;;;;;;;10.52;5.60;;;;;;;;;;5134187;27;20026;-69
2023/04/24 00:09:22;;;;;;;9.90;5.75;;;;;;;;;;5135496;27;20387;-70
2023/04/24 00:12:08;;;;;;;7.82;5.22;;;;;;;;;;5135226;27;20026;-70
2023/04/24 00:14:54;;;;;;;8.43;5.40;;;;;;;;;;5135710;27;20015;-70
2023/04/24 00:17:39;;;;;;;8.93;5.90;;;;;;;;;;5135086;27;20022;-71
2023/04/24 00:20:25;;;;;;;13.65;5.75;;;;;;;;;;5134142;27;20025;-70
2023/04/24 00:23:10;;;;;;;8.27;5.50;;;;;;;;;;5135352;27;20105;-70
2023/04/24 00:25:56;;;;;;;15.20;5.95;;;;;;;;;;5134806;27;20027;-71
2023/04/24 00:28:42;;;;;;;9.48;5.72;;;;;;;;;;5134095;27;20019;-70
2023/04/24 00:31:27;;;;;;;10.00;5.60;;;;;;;;;;5134886;27;20024;-71
2023/04/24 00:34:13;;;;;;;10.13;5.38;;;;;;;;;;5136107;27;20042;-71
2023/04/24 00:36:58;;;;;;;10.93;5.80;;;;;;;;;;5134594;27;20479;-71
2023/04/24 00:39:44;;;;;;;9.52;5.60;;;;;;;;;;5135331;27;20027;-71
2023/04/24 00:42:30;;;;;;;10.27;5.40;;;;;;;;;;5134553;27;20027;-70
2023/04/24 00:45:16;;;;;;;9.25;5.50;;;;;;;;;;5134418;28;20015;-71
2023/04/24 00:48:01;;;;;;;9.60;5.60;;;;;;;;;;5135049;28;20034;-71
2023/04/24 00:50:47;;;;;;;8.85;5.18;;;;;;;;;;5134340;28;20042;-70
2023/04/24 00:53:32;;;;;;;7.72;5.30;;;;;;;;;;5134213;28;20019;-71
2023/04/24 00:56:18;;;;;;;12.50;5.68;;;;;;;;;;5134998;28;20080;-70
2023/04/24 00:59:04;;;;;;;11.88;5.70;;;;;;;;;;5135413;28;20030;-71
2023/04/24 01:01:50;;;;;;;12.80;5.60;;;;;;;;;;5121021;28;20426;-70
2023/04/24 01:04:36;;;;;;;8.57;5.45;;;;;;;;;;5135646;28;20362;-70
2023/04/24 01:07:22;;;;;;;11.35;5.70;;;;;;;;;;5134222;28;20046;-70
2023/04/24 01:10:08;;;;;;;7.72;5.60;;;;;;;;;;5135095;28;20102;-70
2023/04/24 01:12:54;;;;;;;9.02;6.03;;;;;;;;;;5134384;28;20447;-69
2023/04/24 01:15:39;;;;;;;7.70;5.03;;;;;;;;;;5119591;28;20037;-70
2023/04/24 01:18:26;;;;;;;9.45;5.13;;;;;;;;;;5134791;28;20023;-70
2023/04/24 01:21:14;;;;;;;11.48;5.47;;;;;;;;;;5120100;28;20055;-70
2023/04/24 01:24:00;;;;;;;12.15;5.90;;;;;;;;;;5105214;27;20033;-70
2023/04/24 01:26:46;;;;;;;11.15;5.93;;;;;;;;;;5137184;27;20030;-70
2023/04/24 01:29:32;;;;;;;10.18;5.18;;;;;;;;;;5123338;27;20530;-70
2023/04/24 01:32:18;;;;;;;11.15;5.82;;;;;;;;;;5123574;27;20030;-70
2023/04/24 01:35:04;;;;;;;6.53;5.28;;;;;;;;;;5138598;27;20337;-71
2023/04/24 01:37:50;;;;;;;13.13;5.68;;;;;;;;;;5138269;27;20027;-69
2023/04/24 01:40:35;;;;;;;11.00;5.38;;;;;;;;;;5122828;27;20051;-70
2023/04/24 01:43:21;;;;;;;7.47;5.47;;;;;;;;;;5136686;27;20019;-70
2023/04/24 01:46:07;;;;;;;8.90;5.60;;;;;;;;;;5138828;27;20065;-69
2023/04/24 01:48:53;;;;;;;11.00;5.30;;;;;;;;;;5137854;27;20067;-69
2023/04/24 01:51:38;;;;;;;9.38;5.50;;;;;;;;;;5122727;27;20110;-70
2023/04/24 01:54:24;;;;;;;7.88;5.18;;;;;;;;;;5136681;27;20007;-70
2023/04/24 01:57:09;;;;;;;10.90;5.93;;;;;;;;;;5137014;27;20046;-71
2023/04/24 01:59:55;;;;;;;13.43;5.45;;;;;;;;;;5137208;27;20034;-70
2023/04/24 02:02:41;;;;;;;9.13;5.63;;;;;;;;;;5122943;27;20033;-71
2023/04/24 02:05:26;;;;;;;10.32;5.53;;;;;;;;;;5137323;27;20359;-70
2023/04/24 02:08:12;;;;;;;8.23;5.22;;;;;;;;;;5136722;27;20048;-71
2023/04/24 02:10:57;;;;;;;12.88;5.38;;;;;;;;;;5138030;27;20023;-70
2023/04/24 02:13:43;;;;;;;10.25;5.80;;;;;;;;;;5137297;27;20068;-70
2023/04/24 02:16:32;;;;;;;9.10;5.75;;;;;;;;;;5136431;27;20118;-69
2023/04/24 02:19:18;;;;;;;12.60;5.78;;;;;;;;;;5137162;27;20347;-71
2023/04/24 02:22:03;;;;;;;13.52;5.70;;;;;;;;;;5137763;27;20022;-70
2023/04/24 02:24:49;;;;;;;6.95;5.18;;;;;;;;;;5122744;27;20019;-70
2023/04/24 02:27:35;;;;;;;7.03;5.32;;;;;;;;;;5136470;27;20030;-70
2023/04/24 02:30:20;;;;;;;9.15;5.38;;;;;;;;;;5136464;27;20335;-70
2023/04/24 02:33:06;;;;;;;9.50;5.43;;;;;;;;;;5136724;27;20019;-70
2023/04/24 02:35:51;;;;;;;9.55;5.50;;;;;;;;;;5135553;27;20022;-70
2023/04/24 02:38:37;;;;;;;10.93;5.50;;;;;;;;;;5136519;27;20382;-71
2023/04/24 02:41:22;;;;;;;19.50;5.90;;;;;;;;;;5135687;27;20363;-69
2023/04/24 02:44:08;;;;;;;12.85;6.25;;;;;;;;;;5136950;27;20370;-70
2023/04/24 02:46:54;;;;;;;9.93;6.20;;;;;;;;;;5136754;27;20027;-70
2023/04/24 02:49:39;;;;;;;12.88;6.00;;;;;;;;;;5136041;27;20011;-70
2023/04/24 02:52:25;;;;;;;11.05;6.40;;;;;;;;;;5135622;27;20019;-71
2023/04/24 02:55:10;;;;;;;13.70;7.40;;;;;;;;;;5136392;27;20504;-70
2023/04/24 02:57:56;;;;;;;10.43;7.25;;;;;;;;;;5137174;27;20042;-70
2023/04/24 03:00:41;;;;;;;11.82;7.07;;;;;;;;;;5136770;27;20112;-70
2023/04/24 03:03:27;;;;;;;8.52;6.55;;;;;;;;;;5135469;27;20031;-70
2023/04/24 03:06:13;;;;;;;8.68;6.10;;;;;;;;;;5136234;27;20083;-70
2023/04/24 03:08:58;;;;;;;9.48;5.88;;;;;;;;;;5135230;27;20090;-70
2023/04/24 03:11:44;;;;;;;9.43;5.88;;;;;;;;;;5135727;27;20034;-70
2023/04/24 03:14:31;;;;;;;11.50;6.22;;;;;;;;;;5120257;27;20084;-70
2023/04/24 03:17:16;;;;;;;11.30;6.88;;;;;;;;;;5121020;27;20015;-71
2023/04/24 03:20:03;;;;;;;13.35;7.53;;;;;;;;;;5135686;27;20034;-70
2023/04/24 03:22:50;;;;;;;16.27;7.80;;;;;;;;;;5134679;27;20042;-70
2023/04/24 03:25:36;;;;;;;9.82;6.97;;;;;;;;;;5136544;27;20397;-70
2023/04/24 03:28:21;;;;;;;9.95;6.60;;;;;;;;;;5135613;27;20057;-70
2023/04/24 03:31:07;;;;;;;14.98;7.70;;;;;;;;;;5135702;27;20019;-70
2023/04/24 03:33:53;;;;;;;11.23;6.22;;;;;;;;;;5135052;27;20019;-69
2023/04/24 03:36:38;;;;;;;13.55;6.55;;;;;;;;;;5136023;27;20026;-69
2023/04/24 03:39:25;;;;;;;13.77;6.63;;;;;;;;;;5134501;27;20030;-70
2023/04/24 03:42:10;;;;;;;25.55;11.23;;;;;;;;;;5135440;27;20114;-70
2023/04/24 03:44:56;;;;;;;15.25;8.57;;;;;;;;;;5134791;27;20015;-70
2023/04/24 03:47:41;;;;;;;23.13;9.82;;;;;;;;;;5135253;27;20027;-70
2023/04/24 03:50:28;;;;;;;20.10;10.68;;;;;;;;;;5135238;27;20019;-71
2023/04/24 03:53:15;;;;;;;13.82;8.05;;;;;;;;;;5135043;27;20106;-70
2023/04/24 03:56:00;;;;;;;12.77;7.28;;;;;;;;;;5120473;27;20069;-70
2023/04/24 03:58:46;;;;;;;16.67;7.50;;;;;;;;;;5135553;27;20019;-70
2023/04/24 04:01:31;;;;;;;13.13;7.47;;;;;;;;;;5120209;27;20015;-70
2023/04/24 04:04:17;;;;;;;14.18;7.15;;;;;;;;;;5120132;27;20138;-69
2023/04/24 04:07:02;;;;;;;10.98;6.97;;;;;;;;;;5135411;27;20051;-70
2023/04/24 04:09:48;;;;;;;14.90;7.97;;;;;;;;;;5134016;27;20037;-71
2023/04/24 04:12:34;;;;;;;14.68;7.03;;;;;;;;;;5134173;27;20030;-71
2023/04/24 04:15:19;;;;;;;21.23;7.93;;;;;;;;;;5134560;27;20404;-70
2023/04/24 04:18:05;;;;;;;16.75;8.20;;;;;;;;;;5135369;27;20031;-70
2023/04/24 04:20:50;;;;;;;21.23;12.32;;;;;;;;;;5134807;27;20051;-70
2023/04/24 04:23:36;;;;;;;18.98;11.18;;;;;;;;;;5134845;27;20084;-71
2023/04/24 04:26:25;;;;;;;22.40;10.15;;;;;;;;;;5134381;27;20111;-70
2023/04/24 04:29:11;;;;;;;13.90;8.50;;;;;;;;;;5135477;27;20343;-71
2023/04/24 04:31:57;;;;;;;16.30;8.93;;;;;;;;;;5119704;27;20026;-72
2023/04/24 04:34:45;;;;;;;27.58;8.75;;;;;;;;;;5119759;27;20061;-72
2023/04/24 04:37:31;;;;;;;24.45;9.48;;;;;;;;;;5120372;27;20023;-71
2023/04/24 04:40:17;;;;;;;23.20;8.93;;;;;;;;;;5119488;27;20019;-72
2023/04/24 04:43:03;;;;;;;22.17;9.15;;;;;;;;;;5134697;27;20023;-71
2023/04/24 04:45:49;;;;;;;14.30;7.45;;;;;;;;;;5119489;27;20027;-71
2023/04/24 04:48:35;;;;;;;19.08;7.65;;;;;;;;;;5134369;28;20019;-71
2023/04/24 04:51:20;;;;;;;14.93;6.63;;;;;;;;;;5120111;28;20026;-70
2023/04/24 04:54:06;;;;;;;22.15;7.57;;;;;;;;;;5133365;28;20114;-69
2023/04/24 04:56:51;;;;;;;16.98;7.40;;;;;;;;;;5119672;28;20027;-70
2023/04/24 04:59:37;;;;;;;16.08;7.70;;;;;;;;;;5135676;27;20417;-71
2023/04/24 05:02:23;;;;;;;22.60;7.80;;;;;;;;;;5123912;27;20027;-71
2023/04/24 05:05:08;;;;;;;18.70;7.38;;;;;;;;;;5123755;27;20027;-70
2023/04/24 05:07:54;;;;;;;11.40;7.00;;;;;;;;;;5123978;27;20474;-70
2023/04/24 05:10:39;;;;;;;9.95;6.50;;;;;;;;;;5123685;27;20019;-71
2023/04/24 05:13:25;;;;;;;18.23;8.27;;;;;;;;;;5124018;27;20053;-72
2023/04/24 05:16:11;;;;;;;21.75;8.68;;;;;;;;;;5137400;27;20015;-71
2023/04/24 05:18:56;;;;;;;17.27;8.73;;;;;;;;;;5138589;27;20016;-71
2023/04/24 05:21:42;;;;;;;14.48;8.35;;;;;;;;;;5138069;27;20034;-71
2023/04/24 05:24:27;;;;;;;13.43;8.27;;;;;;;;;;5123277;27;20023;-71
2023/04/24 05:27:13;;;;;;;17.33;7.72;;;;;;;;;;5136987;27;20061;-71
2023/04/24 05:29:59;;;;;;;18.20;8.52;;;;;;;;;;5137139;27;20347;-71
2023/04/24 05:32:44;;;;;;;18.73;9.55;;;;;;;;;;5138120;27;20523;-72
2023/04/24 05:35:30;;;;;;;17.92;8.20;;;;;;;;;;5122657;27;20457;-71
2023/04/24 05:38:19;;;;;;;16.80;8.23;;;;;;;;;;5137598;27;20084;-72
2023/04/24 05:41:05;;;;;;;22.67;7.57;;;;;;;;;;5137835;27;20023;-72
2023/04/24 05:43:50;;;;;;;11.55;6.97;;;;;;;;;;5137512;27;20030;-71
2023/04/24 05:46:36;;;;;;;11.45;6.70;;;;;;;;;;5137750;27;20023;-72
2023/04/24 05:49:22;;;;;;;16.65;6.82;;;;;;;;;;5122701;27;20431;-72
2023/04/24 05:52:08;;;;;;;11.90;6.28;;;;;;;;;;5122509;27;20026;-71
2023/04/24 05:54:54;;;;;;;13.45;5.47;;;;;;;;;;5137056;27;20026;-71
2023/04/24 05:57:40;;;;;;;13.75;5.88;;;;;;;;;;5136949;27;20034;-71
2023/04/24 06:00:26;;;;;;;8.70;5.20;;;;;;;;;;5123401;27;20083;-72
2023/04/24 06:03:12;;;;;;;11.10;5.80;;;;;;;;;;5137479;27;20031;-71
2023/04/24 06:05:57;;;;;;;10.23;5.50;;;;;;;;;;5123292;27;20121;-71
2023/04/24 06:08:44;;;;;;;9.35;5.78;;;;;;;;;;5122204;27;20159;-71
2023/04/24 06:11:29;;;;;;;12.35;5.15;;;;;;;;;;5121810;27;20023;-70
2023/04/24 06:14:15;;;;;;;12.38;5.57;;;;;;;;;;5122019;27;20015;-71
2023/04/24 06:17:00;;;;;;;12.00;5.00;;;;;;;;;;5136260;27;20019;-71
2023/04/24 06:19:46;;;;;;;8.82;4.82;;;;;;;;;;5122608;27;20167;-71
2023/04/24 06:22:32;;;;;;;10.32;4.80;;;;;;;;;;5137271;27;20023;-72
2023/04/24 06:25:18;;;;;;;11.90;6.05;;;;;;;;;;5136433;27;20065;-71
2023/04/24 06:28:04;;;;;;;12.98;6.60;;;;;;;;;;5137549;27;20119;-71
2023/04/24 06:30:50;;;;;;;16.45;6.30;;;;;;;;;;5121917;27;20054;-70
2023/04/24 06:33:35;;;;;;;14.55;5.40;;;;;;;;;;5135970;27;20026;-72
2023/04/24 06:36:21;;;;;;;11.95;6.18;;;;;;;;;;5137464;27;20026;-73
2023/04/24 06:39:07;;;;;;;12.45;6.28;;;;;;;;;;5137339;27;20107;-73
2023/04/24 06:41:52;;;;;;;12.43;6.43;;;;;;;;;;5122384;27;20052;-72
2023/04/24 06:44:40;;;;;;;13.48;5.70;;;;;;;;;;5137205;27;20343;-70
2023/04/24 06:47:26;;;;;;;11.05;5.28;;;;;;;;;;5136732;27;20027;-70
2023/04/24 06:50:12;;;;;;;10.35;5.07;;;;;;;;;;5137090;27;20012;-72
2023/04/24 06:52:57;;;;;;;12.70;5.43;;;;;;;;;;5136987;27;20396;-72
2023/04/24 06:55:44;;;;;;;11.57;5.13;;;;;;;;;;5135969;27;20160;-72
2023/04/24 06:58:30;;;;;;;10.18;4.95;;;;;;;;;;5136735;27;20023;-72
2023/04/24 07:01:16;;;;;;;10.60;5.13;;;;;;;;;;5136892;27;20026;-71
2023/04/24 07:04:01;;;;;;;10.68;5.28;;;;;;;;;;5137329;27;20015;-72
2023/04/24 07:06:47;;;;;;;6.15;5.00;;;;;;;;;;5121770;27;20132;-73
2023/04/24 07:09:35;;;;;;;9.23;5.00;;;;;;;;;;5135350;27;20015;-72
2023/04/24 07:12:21;;;;;;;10.65;5.15;;;;;;;;;;5121420;27;20015;-72
2023/04/24 07:15:08;;;;;;;10.80;4.60;;;;;;;;;;5121114;27;20029;-73
2023/04/24 07:17:53;;;;;;;8.55;4.72;;;;;;;;;;5136361;27;20027;-72
2023/04/24 07:20:39;;;;;;;8.32;5.32;;;;;;;;;;5121222;27;20019;-72
2023/04/24 07:23:25;;;;;;;11.52;5.53;;;;;;;;;;5120707;27;20035;-72
2023/04/24 07:26:10;;;;;;;12.23;5.30;;;;;;;;;;5122523;27;20328;-72
2023/04/24 07:28:56;;;;;;;11.57;5.18;;;;;;;;;;5137323;27;20091;-73
2023/04/24 07:31:41;;;;;;;8.35;5.28;;;;;;;;;;5123591;27;20012;-72
2023/04/24 07:34:27;;;;;;;9.40;5.40;;;;;;;;;;5135823;27;20033;-72
2023/04/24 07:37:13;;;;;;;9.30;5.00;;;;;;;;;;5122298;27;20023;-72
2023/04/24 07:39:58;;;;;;;9.10;5.03;;;;;;;;;;5137500;27;20045;-72
2023/04/24 07:42:44;;;;;;;12.05;5.45;;;;;;;;;;5135393;27;20019;-72
2023/04/24 07:45:31;;;;;;;18.27;5.38;;;;;;;;;;5135301;27;20023;-72
2023/04/24 07:48:17;;;;;;;12.13;4.75;;;;;;;;;;5135079;27;20027;-72
2023/04/24 07:51:03;;;;;;;8.65;4.75;;;;;;;;;;5135668;27;20479;-72
2023/04/24 07:53:48;;;;;;;10.80;4.93;;;;;;;;;;5134057;27;20395;-72
2023/04/24 07:56:35;;;;;;;6.95;4.32;;;;;;;;;;5134487;27;20027;-73
2023/04/24 07:59:21;;;;;;;9.20;4.90;;;;;;;;;;5135237;27;20084;-73
2023/04/24 08:02:07;;;;;;;17.25;5.10;;;;;;;;;;5135079;27;20307;-73
2023/04/24 08:04:55;;;;;;;16.42;5.25;;;;;;;;;;5136554;27;20023;-73
2023/04/24 08:07:42;;;;;;;14.63;5.15;;;;;;;;;;5135354;27;20043;-73
2023/04/24 08:10:31;;;;;;;8.65;4.75;;;;;;;;;;5120289;27;20019;-73
2023/04/24 08:13:16;;;;;;;14.52;5.15;;;;;;;;;;5120716;27;20146;-73
2023/04/24 08:16:02;;;;;;;7.28;4.50;;;;;;;;;;5120495;27;20025;-73
2023/04/24 08:18:47;;;;;;;10.50;4.10;;;;;;;;;;5120070;27;20024;-72
2023/04/24 08:21:33;;;;;;;9.30;4.75;;;;;;;;;;5120780;27;20043;-73
2023/04/24 08:24:19;;;;;;;8.73;4.97;;;;;;;;;;5134972;27;20023;-73
2023/04/24 08:27:04;;;;;;;7.63;4.85;;;;;;;;;;5134551;27;20022;-72
2023/04/24 08:29:50;;;;;;;10.48;5.25;;;;;;;;;;5134756;27;20369;-72
2023/04/24 08:32:36;;;;;;;9.93;4.63;;;;;;;;;;5120640;27;20019;-72
2023/04/24 08:35:22;;;;;;;12.68;5.65;;;;;;;;;;5134708;27;20397;-73
2023/04/24 08:38:08;;;;;;;12.07;5.00;;;;;;;;;;5119996;27;20023;-72
2023/04/24 08:40:54;;;;;;;11.65;5.07;;;;;;;;;;5134605;27;20039;-72
2023/04/24 08:43:40;;;;;;;12.95;4.63;;;;;;;;;;5134886;27;20421;-72
2023/04/24 08:46:26;;;;;;;7.05;4.53;;;;;;;;;;5133541;27;20412;-72
2023/04/24 08:49:13;;;;;;;11.80;5.70;;;;;;;;;;5119607;28;20019;-72
2023/04/24 08:51:59;;;;;;;8.60;4.93;;;;;;;;;;5133354;28;20015;-72
2023/04/24 08:54:46;;;;;;;12.07;5.40;;;;;;;;;;5135196;28;20019;-72
2023/04/24 08:57:32;;;;;;;8.95;4.18;;;;;;;;;;5134050;28;20039;-72
2023/04/24 09:00:19;;;;;;;8.73;4.78;;;;;;;;;;5134608;28;20080;-72
2023/04/24 09:03:05;;;;;;;9.60;4.68;;;;;;;;;;5133354;28;20080;-73
2023/04/24 09:05:52;;;;;;;8.88;4.70;;;;;;;;;;5135009;28;20042;-73
2023/04/24 09:08:39;;;;;;;10.38;4.82;;;;;;;;;;5118688;28;20110;-72
2023/04/24 09:11:25;;;;;;;7.25;4.25;;;;;;;;;;5134406;28;20102;-72
2023/04/24 09:14:11;;;;;;;9.43;4.78;;;;;;;;;;5134436;28;20058;-72
2023/04/24 09:16:57;;;;;;;13.40;4.82;;;;;;;;;;5134292;28;20026;-71
2023/04/24 09:19:42;;;;;;;8.40;4.60;;;;;;;;;;5134413;28;20095;-73
2023/04/24 09:22:31;;;;;;;10.43;4.50;;;;;;;;;;5134003;28;20180;-72
2023/04/24 09:25:17;;;;;;;11.85;4.82;;;;;;;;;;5135452;28;20030;-72
2023/04/24 09:28:03;;;;;;;9.82;4.40;;;;;;;;;;5134256;28;20019;-72
2023/04/24 09:31:01;;;;;;;9.23;4.80;;;;;;;;;;5119372;28;20072;-72
2023/04/24 09:33:55;;;;;;;10.32;4.60;;;;;;;;;;5134570;28;20106;-72
2023/04/24 09:36:42;;;;;;;10.90;5.05;;;;;;;;;;5133494;28;20041;-73
2023/04/24 09:39:27;;;;;;;9.52;4.43;;;;;;;;;;5119014;28;20027;-72
2023/04/24 09:42:13;;;;;;;7.40;4.50;;;;;;;;;;5119052;28;20405;-72
2023/04/24 09:44:59;;;;;;;7.88;4.63;;;;;;;;;;5120430;27;20480;-72
2023/04/24 09:47:44;;;;;;;11.95;4.50;;;;;;;;;;5137035;27;20384;-72
2023/04/24 09:50:34;;;;;;;7.55;4.97;;;;;;;;;;5137134;27;20047;-73
2023/04/24 09:53:24;;;;;;;7.18;4.05;;;;;;;;;;5138120;27;20023;-73
2023/04/24 09:56:10;;;;;;;6.93;4.60;;;;;;;;;;5137008;27;20094;-72
2023/04/24 09:59:03;;;;;;;8.45;4.80;;;;;;;;;;5137990;27;20098;-72
2023/04/24 10:01:49;;;;;;;9.48;4.40;;;;;;;;;;5138134;27;20027;-73
2023/04/24 10:04:34;;;;;;;7.72;4.40;;;;;;;;;;5123542;27;20038;-72
2023/04/24 10:07:20;;;;;;;13.82;5.00;;;;;;;;;;5136172;27;20039;-71
2023/04/24 10:10:06;;;;;;;10.55;4.57;;;;;;;;;;5137505;27;20064;-72
2023/04/24 10:12:52;;;;;;;13.20;4.60;;;;;;;;;;5137786;27;20012;-73
2023/04/24 10:15:38;;;;;;;9.38;4.18;;;;;;;;;;5136972;27;20043;-71
2023/04/24 10:18:24;;;;;;;13.52;4.38;;;;;;;;;;5137668;27;20023;-72
2023/04/24 10:21:09;;;;;;;6.93;4.22;;;;;;;;;;5137560;27;20102;-72
2023/04/24 10:23:55;;;;;;;5.53;4.28;;;;;;;;;;5138040;27;20027;-72
2023/04/24 10:26:41;;;;;;;5.63;3.78;;;;;;;;;;5137404;27;20076;-73
2023/04/24 10:29:27;;;;;;;8.90;3.58;;;;;;;;;;5121947;27;20015;-73
2023/04/24 10:32:13;;;;;;;4.85;3.60;;;;;;;;;;5122397;27;20024;-72
2023/04/24 10:34:58;;;;;;;7.13;3.88;;;;;;;;;;5122269;27;20027;-76
2023/04/24 10:37:48;;;;;;;7.57;3.80;;;;;;;;;;5137523;27;20072;-73
2023/04/24 10:40:34;;;;;;;6.53;4.25;;;;;;;;;;5123192;27;20034;-73
2023/04/24 10:43:20;;;;;;;6.25;4.05;;;;;;;;;;5122258;27;20019;-72
2023/04/24 10:46:06;;;;;;;10.48;3.95;;;;;;;;;;5122320;27;20015;-73
2023/04/24 10:48:54;;;;;;;7.30;4.40;;;;;;;;;;5136544;27;20069;-73
2023/04/24 10:51:47;;;;;;;10.50;3.95;;;;;;;;;;5136884;27;20015;-72
2023/04/24 10:54:41;;;;;;;9.98;4.30;;;;;;;;;;5137469;27;20033;-72
2023/04/24 10:57:29;;;;;;;7.60;4.63;;;;;;;;;;5135253;27;20025;-73
2023/04/24 11:00:18;;;;;;;6.10;4.80;;;;;;;;;;5136823;27;20056;-73
2023/04/24 11:03:08;;;;;;;8.18;4.35;;;;;;;;;;5136378;27;20495;-72
2023/04/24 11:05:59;;;;;;;5.20;4.20;;;;;;;;;;5135844;27;20038;-72
2023/04/24 11:08:45;;;;;;;11.40;4.60;;;;;;;;;;5137422;27;20070;-73
2023/04/24 11:11:31;;;;;;;4.65;3.80;;;;;;;;;;5138259;27;20053;-72
2023/04/24 11:14:16;;;;;;;9.07;4.53;;;;;;;;;;5136521;27;20336;-72
2023/04/24 11:17:02;;;;;;;8.48;4.20;;;;;;;;;;5122175;27;20343;-72
2023/04/24 11:19:51;;;;;;;9.02;4.43;;;;;;;;;;5136828;27;20118;-74
2023/04/24 11:22:39;;;;;;;7.72;4.15;;;;;;;;;;5137573;27;20106;-74
2023/04/24 11:25:25;;;;;;;7.45;4.45;;;;;;;;;;5138607;27;20469;-73
2023/04/24 11:28:15;;;;;;;9.02;4.55;;;;;;;;;;5136288;27;20476;-72
2023/04/24 11:31:21;;;;;;;6.95;4.45;;;;;;;;;;5136519;27;20013;-74
2023/04/24 11:34:07;;;;;;;8.13;4.30;;;;;;;;;;5120617;27;20096;-72
2023/04/24 11:36:53;;;;;;;6.95;4.60;;;;;;;;;;5121503;27;20098;-74
2023/04/24 11:40:17;;;;;;;5.97;4.65;;;;;;;;;;5136480;27;20036;-74
2023/04/24 11:43:03;;;;;;;9.32;4.63;;;;;;;;;;5034364;28;20017;-73
2023/04/24 11:45:49;;;;;;;6.90;4.10;;;;;;;;;;5135590;27;20523;-74
2023/04/24 11:48:39;;;;;;;6.28;4.35;;;;;;;;;;5135142;27;20027;-73
2023/04/24 11:51:26;;;;;;;8.23;4.63;;;;;;;;;;5135205;27;20079;-73
2023/04/24 11:54:12;;;;;;;7.15;4.72;;;;;;;;;;5135626;27;20023;-73
2023/04/24 11:56:57;;;;;;;5.22;4.25;;;;;;;;;;5136555;27;20035;-73
2023/04/24 11:59:43;;;;;;;9.57;4.50;;;;;;;;;;5122779;27;20027;-74
2023/04/24 12:02:28;;;;;;;9.77;5.10;;;;;;;;;;5121120;27;20027;-74
2023/04/24 12:05:25;;;;;;;10.63;5.28;;;;;;;;;;5120522;27;20046;-75
2023/04/24 12:08:11;;;;;;;8.63;5.00;;;;;;;;;;5133572;27;20089;-73
2023/04/24 12:10:57;;;;;;;18.35;6.03;;;;;;;;;;5135560;27;20098;-72
2023/04/24 12:13:43;;;;;;;8.88;5.05;;;;;;;;;;5134978;27;20439;-74
2023/04/24 12:16:30;;;;;;;9.82;5.38;;;;;;;;;;5134826;27;20011;-72
2023/04/24 12:19:22;;;;;;;9.73;4.95;;;;;;;;;;5112561;28;20397;-72
2023/04/24 12:22:08;;;;;;;12.23;5.47;;;;;;;;;;5100689;28;20114;-71
2023/04/24 12:24:56;;;;;;;7.20;5.45;;;;;;;;;;5114132;28;20019;-72
2023/04/24 12:27:43;;;;;;;8.07;5.72;;;;;;;;;;5114324;28;20110;-72
2023/04/24 12:30:29;;;;;;;7.68;5.05;;;;;;;;;;5114407;28;20517;-71
2023/04/24 12:33:19;;;;;;;6.63;5.18;;;;;;;;;;5114949;28;20114;-72
2023/04/24 12:36:06;;;;;;;8.48;5.53;;;;;;;;;;5114609;28;20077;-71
2023/04/24 12:38:52;;;;;;;9.05;5.80;;;;;;;;;;5113984;28;20443;-72
2023/04/24 12:41:48;;;;;;;6.55;5.55;;;;;;;;;;5114157;28;20568;-72
2023/04/24 12:44:34;;;;;;;8.55;5.55;;;;;;;;;;5114449;28;20076;-71
2023/04/24 12:47:20;;;;;;;8.88;5.63;;;;;;;;;;5114435;28;20347;-71
2023/04/24 12:50:06;;;;;;;8.23;5.85;;;;;;;;;;5113869;28;20024;-70
2023/04/24 12:52:52;;;;;;;15.73;6.13;;;;;;;;;;5113797;28;20069;-71
2023/04/24 12:55:37;;;;;;;10.20;5.60;;;;;;;;;;5114060;28;20020;-72
2023/04/24 12:58:25;;;;;;;7.95;6.10;;;;;;;;;;5114364;28;20149;-72
2023/04/24 13:01:11;;;;;;;10.27;6.07;;;;;;;;;;5114148;28;20377;-72
2023/04/24 13:03:57;;;;;;;8.40;5.80;;;;;;;;;;5099923;28;20027;-72
2023/04/24 13:06:42;;;;;;;10.85;7.40;;;;;;;;;;5117069;28;20062;-74
2023/04/24 13:09:28;;;;;;;9.82;6.22;;;;;;;;;;5120122;28;20012;-73
2023/04/24 13:12:14;;;;;;;10.18;5.32;;;;;;;;;;5134288;28;20020;-72
2023/04/24 13:14:59;;;;;;;10.02;6.38;;;;;;;;;;5133256;28;20011;-72
2023/04/24 13:17:45;;;;;;;10.55;6.00;;;;;;;;;;5134037;28;20513;-71
2023/04/24 13:20:31;;;;;;;7.05;5.53;;;;;;;;;;5133970;27;20069;-69
2023/04/24 13:23:17;;;;;;;7.95;5.82;;;;;;;;;;5123268;27;20085;-71
2023/04/24 13:26:02;;;;;;;7.10;5.72;;;;;;;;;;5137536;27;20031;-70
2023/04/24 13:28:48;;;;;;;7.60;5.68;;;;;;;;;;5137400;27;20030;-71
2023/04/24 13:31:34;;;;;;;9.32;6.00;;;;;;;;;;5137984;27;20019;-70
2023/04/24 13:34:20;;;;;;;6.57;5.18;;;;;;;;;;5123092;27;20019;-70
2023/04/24 13:37:07;;;;;;;8.82;5.60;;;;;;;;;;5136830;27;20159;-71
2023/04/24 13:39:53;;;;;;;10.70;5.65;;;;;;;;;;5136921;27;20031;-70
2023/04/24 13:42:39;;;;;;;5.88;5.28;;;;;;;;;;5136615;27;20479;-71
2023/04/24 13:45:25;;;;;;;7.55;5.82;;;;;;;;;;5137948;27;20080;-71
2023/04/24 13:48:11;;;;;;;7.63;5.25;;;;;;;;;;5137081;27;20037;-70
2023/04/24 13:50:56;;;;;;;7.65;5.07;;;;;;;;;;5137261;27;20463;-70
2023/04/24 13:53:42;;;;;;;6.95;5.10;;;;;;;;;;5137063;27;20089;-71
2023/04/24 13:56:27;;;;;;;11.07;5.68;;;;;;;;;;5122153;27;20072;-71
2023/04/24 13:59:13;;;;;;;7.05;5.20;;;;;;;;;;5137638;27;20102;-71
2023/04/24 14:01:59;;;;;;;11.40;5.78;;;;;;;;;;5137463;27;20026;-71
2023/04/24 14:04:45;;;;;;;7.95;5.90;;;;;;;;;;5122339;27;20035;-70
2023/04/24 14:07:31;;;;;;;7.07;5.35;;;;;;;;;;5136925;27;20047;-70
2023/04/24 14:10:17;;;;;;;6.63;5.30;;;;;;;;;;5136978;27;20061;-70
2023/04/24 14:13:03;;;;;;;9.52;5.30;;;;;;;;;;5122024;27;20015;-70
2023/04/24 14:15:48;;;;;;;8.93;5.43;;;;;;;;;;5122609;27;20495;-72
2023/04/24 14:18:34;;;;;;;8.15;5.50;;;;;;;;;;5136684;27;20034;-70
2023/04/24 14:21:19;;;;;;;10.48;5.28;;;;;;;;;;5122356;27;20026;-71
2023/04/24 14:24:06;;;;;;;8.52;5.47;;;;;;;;;;5137238;27;20474;-70
2023/04/24 14:26:51;;;;;;;7.15;5.43;;;;;;;;;;5136006;27;20027;-71
2023/04/24 14:29:37;;;;;;;5.90;5.28;;;;;;;;;;5136421;27;20051;-71
2023/04/24 14:32:22;;;;;;;6.97;5.28;;;;;;;;;;5120320;27;20015;-71
2023/04/24 14:35:08;;;;;;;7.90;5.72;;;;;;;;;;5136889;27;20032;-71
2023/04/24 14:37:54;;;;;;;10.18;5.82;;;;;;;;;;5135687;27;20033;-71
2023/04/24 14:40:40;;;;;;;9.48;6.47;;;;;;;;;;5120559;27;20019;-72
2023/04/24 14:43:26;;;;;;;15.80;6.20;;;;;;;;;;5136954;27;20034;-71
2023/04/24 14:46:11;;;;;;;8.10;5.78;;;;;;;;;;5121520;27;20443;-70
2023/04/24 14:48:57;;;;;;;7.82;5.45;;;;;;;;;;5136280;27;20352;-70
2023/04/24 14:51:43;;;;;;;7.90;6.18;;;;;;;;;;5135855;27;20015;-71
2023/04/24 14:54:29;;;;;;;11.25;6.05;;;;;;;;;;5135872;27;20019;-71
2023/04/24 14:57:14;;;;;;;11.75;5.97;;;;;;;;;;5136530;27;20506;-70
2023/04/24 15:00:00;;;;;;;11.40;5.60;;;;;;;;;;5121654;27;20027;-72
2023/04/24 15:02:45;;;;;;;18.85;7.30;;;;;;;;;;5135936;27;20447;-73
2023/04/24 15:05:31;;;;;;;9.52;6.82;;;;;;;;;;5137553;27;20118;-73
2023/04/24 15:08:17;;;;;;;10.77;7.78;;;;;;;;;;5122233;27;20047;-73
2023/04/24 15:11:02;;;;;;;7.60;5.75;;;;;;;;;;5136885;27;20043;-73
2023/04/24 15:13:48;;;;;;;10.73;6.18;;;;;;;;;;5136449;27;20030;-73
2023/04/24 15:16:33;;;;;;;20.55;6.90;;;;;;;;;;5138630;27;20019;-73
2023/04/24 15:19:19;;;;;;;7.25;5.75;;;;;;;;;;5139684;27;20026;-73
2023/04/24 15:22:05;;;;;;;7.35;5.60;;;;;;;;;;5122389;27;20047;-70
2023/04/24 15:24:50;;;;;;;9.30;5.72;;;;;;;;;;5135779;27;20023;-72
2023/04/24 15:27:43;;;;;;;7.88;6.07;;;;;;;;;;5121816;27;20027;-72
2023/04/24 15:30:29;;;;;;;6.43;5.47;;;;;;;;;;5125917;27;20099;-72
2023/04/24 15:33:14;;;;;;;11.38;5.82;;;;;;;;;;5136495;27;20080;-73
2023/04/24 15:36:00;;;;;;;10.65;6.00;;;;;;;;;;5121130;27;20019;-73
2023/04/24 15:38:46;;;;;;;8.65;6.07;;;;;;;;;;5135565;27;20444;-72
2023/04/24 15:41:31;;;;;;;7.72;5.90;;;;;;;;;;5136297;27;20031;-71
2023/04/24 15:44:17;;;;;;;9.27;6.28;;;;;;;;;;5135418;27;20027;-72
2023/04/24 15:47:03;;;;;;;7.47;5.82;;;;;;;;;;5136001;27;20037;-71
2023/04/24 15:49:48;;;;;;;9.05;5.90;;;;;;;;;;5134863;27;20034;-73
2023/04/24 15:52:34;;;;;;;6.82;5.90;;;;;;;;;;5135103;27;20466;-74
2023/04/24 15:55:20;;;;;;;9.00;6.30;;;;;;;;;;5135711;27;20034;-72
2023/04/24 15:58:06;;;;;;;11.18;6.30;;;;;;;;;;5135102;27;20049;-73
2023/04/24 16:00:53;;;;;;;13.52;5.95;;;;;;;;;;5136513;27;20506;-72
2023/04/24 16:03:38;;;;;;;22.00;6.72;;;;;;;;;;5134668;27;20045;-74
2023/04/24 16:06:24;;;;;;;13.27;5.78;;;;;;;;;;5134634;27;20068;-73
2023/04/24 16:09:09;;;;;;;9.60;5.65;;;;;;;;;;5133783;28;20300;-73
2023/04/24 16:11:55;;;;;;;12.15;6.60;;;;;;;;;;5135166;28;20098;-73
2023/04/24 16:14:41;;;;;;;10.40;7.28;;;;;;;;;;5133989;28;20463;-74
2023/04/24 16:17:26;;;;;;;29.58;15.13;;;;;;;;;;5133579;28;20088;-73
2023/04/24 16:20:12;;;;;;;12.48;6.40;;;;;;;;;;5118846;28;20111;-74
2023/04/24 16:22:58;;;;;;;11.30;6.10;;;;;;;;;;5120332;28;20110;-74
2023/04/24 16:25:44;;;;;;;13.90;6.63;;;;;;;;;;5133693;28;20031;-74
2023/04/24 16:28:29;;;;;;;14.95;6.88;;;;;;;;;;5133345;28;20350;-74